Time;durP1;ratioP1;P1;durP2;ratioP2;P2;SDS_P1;SDS_P2;PMS_P1;PMS_P2;Temp;Humidity;BMP_temperature;BMP_pressure;BME280_temperature;BME280_humidity;BME280_pressure;Samples;Min_cycle;Max_cycle;Signal;HPM_P1;HPM_P2
2022/01/27 00:01:05;;;;;;;26.33;10.80;;;7.80;97.10;;;;;;5082268;28;20073;-68
2022/01/27 00:03:37;;;;;;;29.75;10.77;;;7.80;97.10;;;;;;5106923;28;20032;-68
2022/01/27 00:06:09;;;;;;;24.60;11.15;;;7.80;97.10;;;;;;5091194;28;20467;-68
2022/01/27 00:08:51;;;;;;;27.75;11.50;;;7.80;97.10;;;;;;5091489;28;20043;-68
2022/01/27 00:11:17;;;;;;;36.65;13.73;;;7.90;97.10;;;;;;5094636;28;20024;-68
2022/01/27 00:13:47;;;;;;;28.90;13.48;;;7.80;97.10;;;;;;5092830;28;20028;-68
2022/01/27 00:18:43;;;;;;;25.42;13.15;;;7.90;97.00;;;;;;5091252;28;20074;-68
2022/01/27 00:21:09;;;;;;;29.85;13.85;;;7.80;97.00;;;;;;5091852;28;20036;-68
2022/01/27 00:23:35;;;;;;;33.22;13.70;;;7.80;97.10;;;;;;5088086;28;20033;-68
2022/01/27 00:26:02;;;;;;;25.60;11.88;;;7.70;97.10;;;;;;5088821;28;20028;-68
2022/01/27 00:28:27;;;;;;;28.95;12.80;;;7.80;97.10;;;;;;5101695;28;20459;-68
2022/01/27 00:30:54;;;;;;;30.58;13.75;;;7.80;97.10;;;;;;5098603;28;20035;-68
2022/01/27 00:33:19;;;;;;;31.27;12.45;;;7.80;97.00;;;;;;5094028;28;20065;-68
2022/01/27 00:35:45;;;;;;;39.28;15.98;;;7.80;96.90;;;;;;5092952;28;20028;-68
2022/01/27 00:38:11;;;;;;;30.02;15.60;;;7.80;96.80;;;;;;5094110;28;20067;-68
2022/01/27 00:40:37;;;;;;;24.85;12.30;;;7.80;96.80;;;;;;5093081;28;20058;-68
2022/01/27 00:43:02;;;;;;;31.00;12.32;;;7.80;96.90;;;;;;5094083;28;20032;-67
2022/01/27 00:45:31;;;;;;;32.35;14.65;;;7.70;96.90;;;;;;5093486;28;20058;-68
2022/01/27 00:48:01;;;;;;;33.53;15.07;;;7.70;97.30;;;;;;5093079;28;20050;-68
2022/01/27 00:50:27;;;;;;;30.60;12.98;;;7.80;96.90;;;;;;5089712;28;20487;-68
2022/01/27 00:52:55;;;;;;;30.48;13.68;;;7.80;96.90;;;;;;5085135;28;20177;-68
2022/01/27 00:55:23;;;;;;;34.28;15.13;;;7.80;96.90;;;;;;5093258;28;20508;-68
2022/01/27 00:58:07;;;;;;;34.50;13.35;;;7.80;96.80;;;;;;5093585;28;20074;-68
2022/01/27 01:00:37;;;;;;;33.95;13.60;;;7.80;96.70;;;;;;5081918;28;20032;-68
2022/01/27 01:03:15;;;;;;;31.77;14.07;;;7.80;96.70;;;;;;5092734;28;20043;-68
2022/01/27 01:11:20;;;;;;;31.95;15.27;;;7.70;96.70;;;;;;5092263;28;20385;-68
2022/01/27 01:19:20;;;;;;;40.13;12.73;;;7.60;97.10;;;;;;5092672;28;20440;-68
2022/01/27 01:32:52;;;;;;;25.10;12.65;;;7.50;96.60;;;;;;5092945;28;20501;-68
2022/01/27 01:35:29;;;;;;;32.17;15.13;;;7.50;96.60;;;;;;5080135;28;20038;-68
2022/01/27 01:37:56;;;;;;;26.77;12.30;;;7.50;96.60;;;;;;5091515;28;20131;-68
2022/01/27 01:40:22;;;;;;;28.38;11.95;;;7.50;96.60;;;;;;5085390;28;20475;-68
2022/01/27 01:42:48;;;;;;;33.05;15.60;;;7.50;96.60;;;;;;5087904;28;20031;-68
2022/01/27 01:45:20;;;;;;;31.45;13.88;;;7.50;96.40;;;;;;5091931;28;20036;-68
2022/01/27 01:47:48;;;;;;;32.50;15.02;;;7.50;96.50;;;;;;5092289;28;20459;-68
2022/01/27 01:50:17;;;;;;;35.22;17.42;;;7.60;96.30;;;;;;5083587;28;20483;-68
2022/01/27 01:52:51;;;;;;;40.25;16.85;;;7.50;96.30;;;;;;5093475;28;20120;-69
2022/01/27 01:55:18;;;;;;;30.60;15.07;;;7.50;96.30;;;;;;5078383;28;20430;-68
2022/01/27 01:57:44;;;;;;;27.50;13.70;;;7.50;96.40;;;;;;5092101;28;20048;-68
2022/01/27 02:00:11;;;;;;;34.47;14.75;;;7.50;96.30;;;;;;5091511;28;20031;-68
2022/01/27 02:02:41;;;;;;;29.60;15.95;;;7.50;96.30;;;;;;5092781;28;20107;-68
2022/01/27 02:05:08;;;;;;;34.03;15.45;;;7.50;96.20;;;;;;5091355;28;20082;-68
2022/01/27 02:07:57;;;;;;;37.05;16.60;;;7.50;96.20;;;;;;5082854;28;20024;-68
2022/01/27 02:19:06;;;;;;;33.20;15.07;;;7.30;96.40;;;;;;5089776;28;20040;-68
2022/01/27 02:21:31;;;;;;;38.17;17.88;;;7.30;96.40;;;;;;5078967;28;20037;-68
2022/01/27 02:23:57;;;;;;;36.63;17.30;;;7.30;96.40;;;;;;5086485;28;20024;-68
2022/01/27 02:26:25;;;;;;;32.92;18.42;;;7.20;96.40;;;;;;5071642;28;20423;-68
2022/01/27 02:28:51;;;;;;;30.90;15.77;;;7.20;96.50;;;;;;5076432;28;20032;-68
2022/01/27 02:31:16;;;;;;;28.08;16.10;;;7.20;96.80;;;;;;5081876;28;20028;-68
2022/01/27 02:33:42;;;;;;;33.42;15.38;;;7.20;96.50;;;;;;5080077;28;20017;-68
2022/01/27 02:36:08;;;;;;;34.42;18.27;;;7.30;96.50;;;;;;5086231;28;20478;-68
2022/01/27 02:38:33;;;;;;;36.42;17.85;;;7.20;96.50;;;;;;5095946;28;20089;-68
2022/01/27 02:41:02;;;;;;;33.40;18.15;;;7.30;96.60;;;;;;5085021;28;20107;-68
2022/01/27 02:43:31;;;;;;;38.50;19.75;;;7.20;96.50;;;;;;5085610;28;20055;-68
2022/01/27 02:46:06;;;;;;;37.70;18.10;;;7.20;96.50;;;;;;5107197;28;20031;-68
2022/01/27 02:48:32;;;;;;;39.17;18.95;;;7.20;96.60;;;;;;5073185;28;20036;-68
2022/01/27 02:50:58;;;;;;;36.50;18.73;;;7.20;96.60;;;;;;5079706;28;20040;-68
2022/01/27 02:53:23;;;;;;;41.20;17.05;;;7.20;96.50;;;;;;5085211;28;20059;-68
2022/01/27 02:55:49;;;;;;;34.78;16.98;;;7.20;96.60;;;;;;5087068;28;20028;-68
2022/01/27 02:58:15;;;;;;;38.20;19.35;;;7.20;96.60;;;;;;5079814;28;20098;-68
2022/01/27 03:00:42;;;;;;;34.58;19.05;;;7.30;96.60;;;;;;5107806;28;20031;-68
2022/01/27 03:03:08;;;;;;;35.25;19.65;;;7.30;96.50;;;;;;5094929;28;20031;-68
2022/01/27 03:05:34;;;;;;;34.05;17.08;;;7.30;96.60;;;;;;5079128;28;20069;-68
2022/01/27 03:08:00;;;;;;;39.75;20.35;;;7.20;96.60;;;;;;5087128;28;20040;-68
2022/01/27 03:10:29;;;;;;;36.53;19.00;;;7.20;96.70;;;;;;5094415;28;20028;-68
2022/01/27 03:12:59;;;;;;;39.90;20.45;;;7.30;96.70;;;;;;5095851;28;20028;-68
2022/01/27 03:15:25;;;;;;;31.05;13.45;;;7.20;96.70;;;;;;5094803;28;20024;-68
2022/01/27 03:17:51;;;;;;;41.33;18.83;;;7.20;96.80;;;;;;5095187;28;20109;-68
2022/01/27 03:20:17;;;;;;;38.63;19.08;;;7.30;96.70;;;;;;5095084;28;20056;-68
2022/01/27 03:22:42;;;;;;;47.65;17.67;;;7.30;96.60;;;;;;5082363;28;20032;-68
2022/01/27 03:25:08;;;;;;;39.80;20.58;;;7.40;96.70;;;;;;5091810;28;20035;-68
2022/01/27 03:27:34;;;;;;;37.83;18.25;;;7.30;96.60;;;;;;5089687;28;20032;-68
2022/01/27 03:30:00;;;;;;;35.47;19.88;;;7.30;96.70;;;;;;5087316;28;20039;-68
2022/01/27 03:32:27;;;;;;;34.13;18.65;;;7.30;96.70;;;;;;5088924;28;20032;-68
2022/01/27 03:34:53;;;;;;;38.05;18.13;;;7.30;96.80;;;;;;5081733;28;20036;-68
2022/01/27 03:37:19;;;;;;;40.05;19.10;;;7.30;96.80;;;;;;5089695;28;20037;-67
2022/01/27 03:39:45;;;;;;;37.40;18.08;;;7.20;96.80;;;;;;5089217;28;20058;-68
2022/01/27 03:42:10;;;;;;;42.28;19.92;;;7.20;96.90;;;;;;5080343;28;20036;-68
2022/01/27 03:44:36;;;;;;;39.40;19.83;;;7.30;96.80;;;;;;5073961;28;20127;-68
2022/01/27 03:47:03;;;;;;;34.78;17.15;;;7.30;96.80;;;;;;5084337;28;20028;-68
2022/01/27 03:49:29;;;;;;;40.33;17.42;;;7.30;96.90;;;;;;5085482;28;20032;-68
2022/01/27 03:52:00;;;;;;;37.47;16.20;;;7.30;96.90;;;;;;5092983;28;20707;-67
2022/01/27 03:54:26;;;;;;;33.60;16.48;;;7.30;96.80;;;;;;5090375;28;20051;-68
2022/01/27 03:56:52;;;;;;;38.00;18.00;;;7.30;96.90;;;;;;5080112;28;20452;-68
2022/01/27 03:59:18;;;;;;;37.47;16.42;;;7.30;96.90;;;;;;5094028;28;20103;-68
2022/01/27 04:01:44;;;;;;;35.88;16.77;;;7.30;96.90;;;;;;5094496;28;20411;-68
2022/01/27 04:04:10;;;;;;;32.40;15.57;;;7.30;96.90;;;;;;5107603;28;20031;-68
2022/01/27 04:06:39;;;;;;;32.83;14.70;;;7.40;97.00;;;;;;5089176;28;20116;-68
2022/01/27 04:09:10;;;;;;;32.97;15.82;;;7.40;96.90;;;;;;5074485;28;20032;-68
2022/01/27 04:11:36;;;;;;;29.80;15.35;;;7.40;96.90;;;;;;5093792;28;20020;-67
2022/01/27 04:14:02;;;;;;;35.60;18.13;;;7.40;96.80;;;;;;5093967;28;20028;-68
2022/01/27 04:16:28;;;;;;;33.38;15.73;;;7.40;96.80;;;;;;5094347;28;20442;-68
2022/01/27 04:18:54;;;;;;;37.33;14.82;;;7.40;96.90;;;;;;5093260;28;20213;-68
2022/01/27 04:21:20;;;;;;;37.80;15.13;;;7.40;97.00;;;;;;5086841;28;20402;-68
2022/01/27 04:23:46;;;;;;;37.47;15.75;;;7.40;97.00;;;;;;5103527;28;20383;-67
2022/01/27 04:26:15;;;;;;;35.40;15.05;;;7.40;97.10;;;;;;5093290;28;20494;-68
2022/01/27 04:28:42;;;;;;;39.08;17.13;;;7.50;97.10;;;;;;5078348;28;20040;-68
2022/01/27 04:31:09;;;;;;;38.40;15.20;;;7.50;97.00;;;;;;5084511;28;20055;-68
2022/01/27 04:33:37;;;;;;;29.02;12.48;;;7.50;97.00;;;;;;5097424;28;20028;-68
2022/01/27 04:36:15;;;;;;;37.22;15.70;;;7.40;97.00;;;;;;5102990;28;20060;-68
2022/01/27 04:38:54;;;;;;;34.72;15.30;;;7.40;97.10;;;;;;5092535;28;20093;-68
2022/01/27 04:41:29;;;;;;;36.33;16.83;;;7.50;97.20;;;;;;5085751;28;20113;-68
2022/01/27 04:44:02;;;;;;;34.13;16.23;;;7.50;97.20;;;;;;5093976;28;20119;-68
2022/01/27 04:46:35;;;;;;;30.33;13.23;;;7.50;97.20;;;;;;5093829;28;20027;-68
2022/01/27 04:49:03;;;;;;;32.60;14.95;;;7.50;97.30;;;;;;5093221;28;20043;-68
2022/01/27 04:51:30;;;;;;;37.72;15.43;;;7.50;97.30;;;;;;5092918;28;20024;-68
2022/01/27 04:54:12;;;;;;;32.22;13.07;;;7.50;97.40;;;;;;5105811;28;20138;-69
2022/01/27 04:56:39;;;;;;;39.53;14.52;;;7.50;97.40;;;;;;5077822;28;20375;-68
2022/01/27 04:59:19;;;;;;;34.47;12.88;;;7.60;97.40;;;;;;5084098;28;20467;-68
2022/01/27 05:01:53;;;;;;;33.25;13.82;;;7.60;97.40;;;;;;5092225;28;20031;-67
2022/01/27 05:04:21;;;;;;;37.70;14.73;;;7.70;97.40;;;;;;5093306;28;20039;-67
2022/01/27 05:06:49;;;;;;;36.42;14.40;;;7.60;97.40;;;;;;5095868;28;20043;-68
2022/01/27 05:09:15;;;;;;;29.05;13.70;;;7.60;97.50;;;;;;5104486;28;20040;-68
2022/01/27 05:11:52;;;;;;;29.95;12.15;;;7.60;97.60;;;;;;5110142;28;20030;-68
2022/01/27 05:14:25;;;;;;;35.30;13.77;;;7.60;97.60;;;;;;5110563;28;20047;-68
2022/01/27 05:16:52;;;;;;;27.00;9.98;;;7.70;97.70;;;;;;5106187;28;20115;-69
2022/01/27 05:19:18;;;;;;;36.40;13.88;;;7.60;97.70;;;;;;5104541;28;20034;-68
2022/01/27 05:21:44;;;;;;;22.73;10.20;;;7.60;97.70;;;;;;5101631;27;20114;-71
2022/01/27 05:24:10;;;;;;;30.48;12.45;;;7.70;97.70;;;;;;5103567;28;20115;-70
2022/01/27 05:26:38;;;;;;;25.75;11.70;;;7.70;97.70;;;;;;5110484;28;20040;-68
2022/01/27 05:29:05;;;;;;;31.77;12.20;;;7.70;97.70;;;;;;5105504;28;20025;-69
2022/01/27 05:31:31;;;;;;;28.63;10.50;;;7.70;97.80;;;;;;5093045;28;20122;-68
2022/01/27 05:33:57;;;;;;;28.27;10.85;;;7.70;97.80;;;;;;5086885;28;20119;-68
2022/01/27 05:36:23;;;;;;;30.35;13.25;;;7.70;97.70;;;;;;5086264;28;20036;-69
2022/01/27 05:38:48;;;;;;;28.50;12.25;;;7.80;97.80;;;;;;5095578;28;20444;-71
2022/01/27 05:41:14;;;;;;;36.03;12.25;;;7.80;97.80;;;;;;5081918;28;20024;-68
2022/01/27 05:43:43;;;;;;;32.55;13.48;;;7.80;97.80;;;;;;5083465;28;20480;-70
2022/01/27 05:46:09;;;;;;;32.22;12.20;;;7.80;97.80;;;;;;5106429;28;20164;-72
2022/01/27 05:48:35;;;;;;;25.70;10.85;;;7.80;97.90;;;;;;5103621;28;20118;-69
2022/01/27 05:51:01;;;;;;;24.45;10.55;;;7.80;97.90;;;;;;5100601;28;20031;-67
2022/01/27 05:53:30;;;;;;;24.25;10.93;;;7.80;97.90;;;;;;5096539;28;20062;-67
2022/01/27 05:55:58;;;;;;;33.70;11.65;;;7.80;98.00;;;;;;5096217;28;20028;-67
2022/01/27 05:58:25;;;;;;;18.67;8.25;;;7.80;98.00;;;;;;5096645;28;20064;-67
2022/01/27 06:00:51;;;;;;;22.75;8.23;;;7.80;98.10;;;;;;5099133;28;20032;-67
2022/01/27 06:03:16;;;;;;;23.67;8.70;;;7.80;98.10;;;;;;5104935;28;20451;-68
2022/01/27 06:05:42;;;;;;;21.50;9.63;;;7.90;98.10;;;;;;5104649;28;20024;-68
2022/01/27 06:08:08;;;;;;;19.52;9.35;;;7.80;98.10;;;;;;5100497;28;20028;-68
2022/01/27 06:10:34;;;;;;;23.80;10.05;;;7.80;98.20;;;;;;5100513;28;20024;-68
2022/01/27 06:13:00;;;;;;;25.58;10.50;;;7.80;98.20;;;;;;5091680;28;20122;-68
2022/01/27 06:15:26;;;;;;;25.67;10.23;;;7.80;98.30;;;;;;5091530;28;20147;-68
2022/01/27 06:17:53;;;;;;;17.63;9.27;;;7.80;98.30;;;;;;5102819;28;20092;-67
2022/01/27 06:20:19;;;;;;;20.88;9.38;;;7.80;98.40;;;;;;5103755;28;20383;-67
2022/01/27 06:22:48;;;;;;;23.65;9.55;;;7.80;98.50;;;;;;5088548;28;20024;-66
2022/01/27 06:25:15;;;;;;;18.60;9.48;;;7.80;98.50;;;;;;5074490;28;20418;-67
2022/01/27 06:27:41;;;;;;;19.80;7.50;;;7.80;98.50;;;;;;5095711;28;20471;-68
2022/01/27 06:30:10;;;;;;;27.55;9.60;;;7.80;98.50;;;;;;5107379;28;20119;-67
2022/01/27 06:32:36;;;;;;;19.58;9.68;;;7.80;98.50;;;;;;5101397;28;20036;-67
2022/01/27 06:35:03;;;;;;;22.08;9.18;;;7.80;98.50;;;;;;5103102;28;20032;-67
2022/01/27 06:37:31;;;;;;;16.17;7.70;;;7.90;98.50;;;;;;5099213;28;20032;-67
2022/01/27 06:39:56;;;;;;;23.98;9.75;;;7.90;98.50;;;;;;5102255;28;20028;-67
2022/01/27 06:42:22;;;;;;;20.63;8.70;;;7.90;98.60;;;;;;5105031;28;20039;-65
2022/01/27 06:44:48;;;;;;;19.98;9.23;;;7.90;98.60;;;;;;5108671;28;20032;-65
2022/01/27 06:47:13;;;;;;;17.70;8.60;;;7.90;98.70;;;;;;5109784;28;20383;-66
2022/01/27 06:49:41;;;;;;;18.83;8.63;;;7.90;98.70;;;;;;5103474;28;20027;-66
2022/01/27 06:52:07;;;;;;;19.55;7.88;;;7.90;98.70;;;;;;5091411;28;20040;-64
2022/01/27 06:54:33;;;;;;;20.77;8.98;;;7.90;98.70;;;;;;5091010;28;20024;-65
2022/01/27 06:56:59;;;;;;;35.40;9.52;;;7.90;98.80;;;;;;5087206;28;20128;-65
2022/01/27 06:59:28;;;;;;;19.63;8.85;;;7.90;98.90;;;;;;5089847;28;20063;-65
2022/01/27 07:01:53;;;;;;;13.18;5.80;;;7.90;98.90;;;;;;5089286;28;20039;-65
2022/01/27 07:04:19;;;;;;;20.55;9.52;;;7.90;99.00;;;;;;5091704;28;20028;-65
2022/01/27 07:06:45;;;;;;;21.80;9.77;;;8.00;99.00;;;;;;5091821;28;20464;-67
2022/01/27 07:09:11;;;;;;;22.67;9.13;;;8.00;99.00;;;;;;5090719;28;20036;-66
2022/01/27 07:11:36;;;;;;;18.85;9.88;;;8.00;99.00;;;;;;5090715;28;20036;-66
2022/01/27 07:14:02;;;;;;;19.58;8.05;;;7.90;99.10;;;;;;5094439;28;20067;-67
2022/01/27 07:16:28;;;;;;;17.98;7.68;;;7.90;99.20;;;;;;5095174;28;20024;-66
2022/01/27 07:18:53;;;;;;;20.85;9.25;;;8.00;99.20;;;;;;5093720;28;20039;-66
2022/01/27 07:21:19;;;;;;;19.20;8.52;;;8.00;99.30;;;;;;5084343;28;20440;-66
2022/01/27 07:23:46;;;;;;;19.33;9.18;;;8.00;99.30;;;;;;5094257;28;20024;-66
2022/01/27 07:26:13;;;;;;;25.17;9.95;;;8.00;99.30;;;;;;5095103;28;20024;-66
2022/01/27 07:28:39;;;;;;;20.92;9.43;;;8.00;99.40;;;;;;5094369;28;20031;-66
2022/01/27 07:31:05;;;;;;;22.88;8.32;;;8.00;99.50;;;;;;5087239;28;20033;-66
2022/01/27 07:33:30;;;;;;;23.20;8.73;;;8.00;99.50;;;;;;5091820;28;20036;-66
2022/01/27 07:35:56;;;;;;;18.80;7.78;;;8.10;99.50;;;;;;5094849;28;20030;-66
2022/01/27 07:38:23;;;;;;;27.02;8.88;;;8.10;99.50;;;;;;5094397;28;20043;-66
2022/01/27 07:40:49;;;;;;;19.33;6.25;;;8.10;99.50;;;;;;5095019;28;20035;-66
2022/01/27 07:43:16;;;;;;;18.95;6.75;;;8.10;99.40;;;;;;5094136;28;20089;-66
2022/01/27 07:45:42;;;;;;;18.98;6.47;;;8.20;99.40;;;;;;5084019;28;20028;-66
2022/01/27 07:48:08;;;;;;;17.42;7.13;;;8.20;99.30;;;;;;5075858;28;20036;-66
2022/01/27 07:50:34;;;;;;;17.20;6.50;;;8.30;99.30;;;;;;5081885;28;20036;-66
2022/01/27 07:53:00;;;;;;;16.35;7.20;;;8.30;99.30;;;;;;5094292;28;20140;-66
2022/01/27 07:55:26;;;;;;;19.35;7.35;;;8.30;99.20;;;;;;5087755;28;20028;-66
2022/01/27 07:57:52;;;;;;;15.98;7.45;;;8.30;99.30;;;;;;5073600;28;20052;-65
2022/01/27 08:00:18;;;;;;;17.55;7.78;;;8.30;99.40;;;;;;5094800;28;20020;-71
2022/01/27 08:02:45;;;;;;;13.68;6.10;;;8.30;99.40;;;;;;5081130;28;20037;-67
2022/01/27 08:05:11;;;;;;;20.95;7.30;;;8.40;99.40;;;;;;5094041;28;20028;-66
2022/01/27 08:07:37;;;;;;;19.98;7.97;;;8.30;99.40;;;;;;5093883;28;20545;-66
2022/01/27 08:10:03;;;;;;;19.30;7.30;;;8.30;99.70;;;;;;5087025;28;20029;-66
2022/01/27 08:12:28;;;;;;;16.02;5.43;;;8.30;99.50;;;;;;5075193;28;20028;-66
2022/01/27 08:14:54;;;;;;;29.88;6.47;;;8.30;99.60;;;;;;5082375;28;20551;-66
2022/01/27 08:17:20;;;;;;;24.17;7.30;;;8.40;99.60;;;;;;5093941;28;20043;-66
2022/01/27 08:19:45;;;;;;;20.13;7.07;;;8.50;99.60;;;;;;5094179;28;20024;-66
2022/01/27 08:22:11;;;;;;;17.00;4.82;;;8.50;99.50;;;;;;5091890;28;20040;-66
2022/01/27 08:24:41;;;;;;;18.70;4.88;;;8.50;99.50;;;;;;5084534;28;20353;-66
2022/01/27 08:27:08;;;;;;;19.42;6.28;;;8.50;99.50;;;;;;5076672;28;20411;-66
2022/01/27 08:29:45;;;;;;;22.30;5.57;;;8.50;99.50;;;;;;5084071;28;20039;-66
2022/01/27 08:32:16;;;;;;;23.17;7.28;;;8.50;99.50;;;;;;5074403;28;20536;-66
2022/01/27 08:34:43;;;;;;;19.90;7.50;;;8.50;99.50;;;;;;5086802;28;20036;-66
2022/01/27 08:37:13;;;;;;;16.95;4.88;;;8.60;99.60;;;;;;5113737;28;20035;-66
2022/01/27 08:39:40;;;;;;;23.63;5.95;;;8.50;99.80;;;;;;5099334;27;20056;-66
2022/01/27 08:42:08;;;;;;;17.65;5.82;;;8.50;99.80;;;;;;5093988;28;20038;-66
2022/01/27 08:44:34;;;;;;;14.85;5.57;;;8.50;99.90;;;;;;5092678;28;20028;-66
2022/01/27 08:47:00;;;;;;;23.98;5.47;;;8.60;99.90;;;;;;5081565;28;20032;-66
2022/01/27 08:49:27;;;;;;;18.40;4.95;;;8.60;99.70;;;;;;5106374;28;20043;-66
2022/01/27 08:51:54;;;;;;;22.70;5.15;;;8.70;99.70;;;;;;5093667;28;20463;-65
2022/01/27 08:54:19;;;;;;;19.92;5.60;;;8.70;99.70;;;;;;5092953;28;20039;-66
2022/01/27 08:56:45;;;;;;;17.67;5.10;;;8.70;99.70;;;;;;5084480;28;20040;-66
2022/01/27 08:59:11;;;;;;;24.75;5.72;;;8.70;99.70;;;;;;5102418;28;20039;-66
2022/01/27 09:01:38;;;;;;;19.08;5.60;;;8.80;99.70;;;;;;5079508;28;20036;-66
2022/01/27 09:04:04;;;;;;;20.25;4.82;;;8.80;99.60;;;;;;5093087;28;20060;-66
2022/01/27 09:06:33;;;;;;;21.58;5.60;;;8.80;99.60;;;;;;5093436;28;20028;-66
2022/01/27 09:08:59;;;;;;;20.33;5.75;;;8.90;99.50;;;;;;5092663;28;20032;-66
2022/01/27 09:11:25;;;;;;;13.70;4.68;;;8.90;99.50;;;;;;5106643;28;20028;-66
2022/01/27 09:13:53;;;;;;;14.30;4.45;;;8.90;99.60;;;;;;5093125;28;20093;-66
2022/01/27 09:16:19;;;;;;;12.60;4.50;;;8.90;99.60;;;;;;5092676;28;20052;-66
2022/01/27 09:18:45;;;;;;;25.70;4.70;;;8.90;99.60;;;;;;5093149;28;20117;-66
2022/01/27 09:21:17;;;;;;;11.90;3.35;;;8.90;99.60;;;;;;5080249;28;20514;-66
2022/01/27 09:23:45;;;;;;;18.77;5.15;;;8.90;99.60;;;;;;5092945;28;20126;-66
2022/01/27 09:26:37;;;;;;;19.88;4.78;;;8.90;99.60;;;;;;5085212;28;20123;-66
2022/01/27 09:28:56;;;;;;;10.40;3.30;;;9.00;99.50;;;;;;5090821;28;20028;-66
2022/01/27 09:31:22;;;;;;;18.77;4.63;;;9.00;99.50;;;;;;5082339;28;20114;-66
2022/01/27 09:33:47;;;;;;;17.52;4.35;;;9.10;99.50;;;;;;5092048;28;20035;-66
2022/01/27 09:36:13;;;;;;;21.13;3.70;;;9.10;99.50;;;;;;5104909;28;20106;-66
2022/01/27 09:38:39;;;;;;;24.27;4.15;;;9.10;99.40;;;;;;5092568;28;20040;-66
2022/01/27 09:41:07;;;;;;;10.82;3.40;;;9.20;99.30;;;;;;5092222;28;20043;-66
2022/01/27 09:43:37;;;;;;;22.25;4.47;;;9.20;99.30;;;;;;5078805;28;20391;-66
2022/01/27 09:46:08;;;;;;;14.15;4.38;;;9.30;99.30;;;;;;5093199;28;20049;-66
2022/01/27 09:48:40;;;;;;;15.23;4.50;;;9.30;99.20;;;;;;5101434;28;20482;-66
2022/01/27 09:51:48;;;;;;;20.27;5.43;;;9.30;99.20;;;;;;5095308;28;20031;-66
2022/01/27 09:53:56;;;;;;;14.38;3.72;;;9.30;99.20;;;;;;5074413;28;20056;-66
2022/01/27 09:56:23;;;;;;;23.73;4.05;;;9.30;99.20;;;;;;5073469;28;20060;-66
2022/01/27 09:58:52;;;;;;;16.00;3.22;;;9.30;99.20;;;;;;5092545;28;20391;-66
2022/01/27 10:01:18;;;;;;;18.35;3.25;;;9.40;99.20;;;;;;5091753;28;20024;-66
2022/01/27 10:03:58;;;;;;;19.38;3.90;;;9.40;99.40;;;;;;5084050;28;20482;-66
2022/01/27 10:06:30;;;;;;;13.63;3.70;;;9.40;99.20;;;;;;5090012;28;20423;-65
2022/01/27 10:09:19;;;;;;;15.43;3.20;;;9.40;99.10;;;;;;5092613;28;20051;-65
2022/01/27 10:11:49;;;;;;;13.80;2.95;;;9.50;99.20;;;;;;5081055;28;20042;-65
2022/01/27 10:14:22;;;;;;;14.27;3.97;;;9.50;99.10;;;;;;5091944;28;20028;-65
2022/01/27 10:16:51;;;;;;;17.77;3.63;;;9.50;99.10;;;;;;5091995;28;20052;-65
2022/01/27 10:19:17;;;;;;;12.60;3.33;;;9.60;99.10;;;;;;5090355;28;20434;-65
2022/01/27 10:21:43;;;;;;;12.57;2.85;;;9.60;99.10;;;;;;5092126;28;20028;-65
2022/01/27 10:24:19;;;;;;;13.25;3.28;;;9.60;99.10;;;;;;5092886;28;20050;-66
2022/01/27 10:26:53;;;;;;;13.70;4.07;;;9.60;99.10;;;;;;5092562;28;20028;-66
2022/01/27 10:29:34;;;;;;;10.68;3.30;;;9.60;99.10;;;;;;5088207;28;20065;-66
2022/01/27 10:32:09;;;;;;;16.73;3.58;;;9.60;99.10;;;;;;5082424;28;20024;-66
2022/01/27 10:34:55;;;;;;;15.18;2.63;;;9.70;99.10;;;;;;5092251;28;20028;-66
2022/01/27 10:37:22;;;;;;;19.63;3.03;;;9.70;99.10;;;;;;5080171;28;20172;-66
2022/01/27 10:39:48;;;;;;;18.95;3.28;;;9.70;99.10;;;;;;5091033;28;20028;-66
2022/01/27 10:42:14;;;;;;;10.32;3.15;;;9.80;99.10;;;;;;5092743;28;20058;-66
2022/01/27 10:44:48;;;;;;;15.68;4.47;;;9.80;99.10;;;;;;5093977;28;20124;-66
2022/01/27 10:47:30;;;;;;;18.08;3.42;;;9.80;99.00;;;;;;5101392;28;20427;-66
2022/01/27 10:50:04;;;;;;;22.63;5.25;;;9.80;99.00;;;;;;5095965;28;20043;-66
2022/01/27 10:52:37;;;;;;;17.20;3.80;;;9.90;99.00;;;;;;5094524;28;20048;-66
2022/01/27 10:55:08;;;;;;;6.45;2.28;;;10.00;98.90;;;;;;5092342;28;20416;-66
2022/01/27 10:57:34;;;;;;;14.05;2.45;;;10.00;98.90;;;;;;5087141;28;20044;-66
2022/01/27 11:00:06;;;;;;;9.75;2.50;;;10.00;98.90;;;;;;5107965;28;20030;-66
2022/01/27 11:02:31;;;;;;;11.68;3.17;;;10.00;98.90;;;;;;5095799;28;20040;-66
2022/01/27 11:04:57;;;;;;;13.20;2.35;;;10.00;98.80;;;;;;5082385;28;20040;-66
2022/01/27 11:07:25;;;;;;;19.77;4.00;;;10.00;98.80;;;;;;5095299;28;20024;-66
2022/01/27 11:09:53;;;;;;;14.00;2.95;;;10.10;98.90;;;;;;5095284;28;20395;-66
2022/01/27 11:12:19;;;;;;;19.65;4.05;;;10.10;98.80;;;;;;5095773;28;20600;-66
2022/01/27 11:14:50;;;;;;;11.00;3.95;;;10.10;98.80;;;;;;5081506;28;20118;-66
2022/01/27 11:17:19;;;;;;;17.88;3.22;;;10.20;98.80;;;;;;5095240;28;20040;-66
2022/01/27 11:27:37;;;;;;;21.13;3.78;;;10.20;98.70;;;;;;5107746;28;20111;-66
2022/01/27 11:30:09;;;;;;;14.63;2.90;;;10.30;98.70;;;;;;5107941;28;20498;-67
2022/01/27 11:32:51;;;;;;;10.05;2.58;;;10.30;98.70;;;;;;5108348;28;20473;-66
2022/01/27 11:35:22;;;;;;;16.52;3.55;;;10.30;98.70;;;;;;5111622;28;20035;-66
2022/01/27 11:38:01;;;;;;;13.77;3.83;;;10.40;98.60;;;;;;5108237;28;20091;-66
2022/01/27 11:40:46;;;;;;;14.45;3.53;;;10.40;98.60;;;;;;5085723;28;20154;-66
2022/01/27 11:43:17;;;;;;;18.15;3.78;;;10.40;98.60;;;;;;5108233;28;20069;-66
2022/01/27 11:45:53;;;;;;;9.68;3.05;;;10.40;98.60;;;;;;5105433;28;20039;-66
2022/01/27 11:48:26;;;;;;;5.90;2.22;;;10.40;98.50;;;;;;5102145;28;20489;-66
2022/01/27 11:50:56;;;;;;;19.13;4.03;;;10.50;98.50;;;;;;5107188;28;20044;-66
2022/01/27 11:53:50;;;;;;;28.73;3.75;;;10.50;98.40;;;;;;5099078;28;20103;-66
2022/01/27 11:56:27;;;;;;;18.02;2.38;;;10.50;98.30;;;;;;5106027;28;20035;-67
2022/01/27 11:58:55;;;;;;;9.88;2.13;;;10.60;98.30;;;;;;5104293;28;20048;-68
2022/01/27 12:01:21;;;;;;;15.70;4.13;;;10.60;98.10;;;;;;5103763;28;20085;-67
2022/01/27 12:04:06;;;;;;;18.17;3.90;;;10.60;98.10;;;;;;5102386;28;20380;-68
2022/01/27 12:06:47;;;;;;;18.35;2.70;;;10.50;97.90;;;;;;5106264;28;20428;-68
2022/01/27 12:09:19;;;;;;;23.45;3.15;;;10.60;98.10;;;;;;5098039;28;20038;-65
2022/01/27 12:11:53;;;;;;;17.50;3.35;;;10.60;98.10;;;;;;5103007;28;20032;-66
2022/01/27 12:14:23;;;;;;;9.13;2.42;;;10.60;98.10;;;;;;5105132;28;20429;-66
2022/01/27 12:17:10;;;;;;;15.55;3.05;;;10.60;98.10;;;;;;5104285;28;20036;-66
2022/01/27 12:20:01;;;;;;;17.45;3.70;;;10.70;98.00;;;;;;5102105;28;20039;-68
2022/01/27 12:22:50;;;;;;;17.15;3.42;;;10.70;97.90;;;;;;5103141;28;20484;-67
2022/01/27 12:25:17;;;;;;;5.60;1.90;;;10.70;97.80;;;;;;5102300;28;20035;-67
2022/01/27 12:27:51;;;;;;;16.30;3.00;;;10.80;97.80;;;;;;5103121;28;20030;-67
2022/01/27 12:30:16;;;;;;;;;;;10.80;97.80;;;;;;5102797;28;20155;-67
2022/01/27 12:32:42;;;;;;;23.75;2.83;;;10.80;97.50;;;;;;5102224;28;20007;-66
2022/01/27 12:35:12;;;;;;;24.98;3.58;;;10.80;97.50;;;;;;5100572;28;20441;-67
2022/01/27 12:37:40;;;;;;;19.33;3.95;;;10.80;97.60;;;;;;5102177;28;20047;-68
2022/01/27 12:40:19;;;;;;;11.95;2.75;;;10.80;97.50;;;;;;5105734;28;20024;-67
2022/01/27 12:42:59;;;;;;;16.08;3.30;;;10.70;97.60;;;;;;5104052;28;20032;-67
2022/01/27 12:45:30;;;;;;;16.55;2.42;;;10.80;97.00;;;;;;5103019;28;20015;-67
2022/01/27 12:48:04;;;;;;;19.88;3.92;;;10.70;97.20;;;;;;5107736;28;20498;-67
2022/01/27 12:50:30;;;;;;;14.63;2.50;;;10.80;97.00;;;;;;5110290;28;20032;-67
2022/01/27 12:53:01;;;;;;;18.67;2.83;;;10.80;97.40;;;;;;5101695;28;20039;-67
2022/01/27 12:55:33;;;;;;;13.70;2.50;;;10.80;97.30;;;;;;5093591;28;20472;-72
2022/01/27 12:58:03;;;;;;;17.90;2.47;;;10.90;97.40;;;;;;5081726;28;20036;-69
2022/01/27 13:00:35;;;;;;;11.48;2.78;;;10.90;97.50;;;;;;5094076;28;20394;-68
2022/01/27 13:03:01;;;;;;;14.27;2.10;;;10.90;97.40;;;;;;5103532;28;20069;-69
2022/01/27 13:05:41;;;;;;;25.98;4.35;;;10.90;97.20;;;;;;5104486;28;20023;-69
2022/01/27 13:08:10;;;;;;;27.10;5.20;;;10.90;96.80;;;;;;5102705;28;20084;-67
2022/01/27 13:10:37;;;;;;;19.05;3.45;;;10.90;97.10;;;;;;5108721;28;20027;-67
2022/01/27 13:13:34;;;;;;;26.45;4.07;;;11.00;96.80;;;;;;5105253;28;20039;-66
2022/01/27 13:16:03;;;;;;;19.65;2.85;;;10.90;97.00;;;;;;5105958;28;20418;-66
2022/01/27 13:18:52;;;;;;;17.70;3.63;;;11.00;97.10;;;;;;5092756;28;20494;-66
2022/01/27 13:21:24;;;;;;;19.08;2.97;;;10.90;96.80;;;;;;5090802;28;20046;-66
2022/01/27 13:24:06;;;;;;;24.92;2.90;;;11.00;96.90;;;;;;5092867;28;20368;-66
2022/01/27 13:26:31;;;;;;;18.60;3.55;;;11.00;97.00;;;;;;5080903;28;20475;-66
2022/01/27 13:28:58;;;;;;;15.45;2.75;;;11.00;97.10;;;;;;5104853;28;20027;-68
2022/01/27 13:31:26;;;;;;;11.50;2.28;;;11.00;97.10;;;;;;5083151;28;20033;-66